Airfield :
LOGIN :

Register | Disclaimer

   EN    FR    IT 

 










Legend :    VFR   Marginal VFR   IFR   Intensive IFR   Very Intensive IFR
Visi :
Ceiling :
>= 8 km
>= 3000ft
5 to 8 km
1000 to 3000 ft
1500m to 5 km
500 to 1000 ft
800 to 1500m
200 to 500 ft
< 800m
< 200 ft
Symbols :   Thunderstorms  Fog  Heavy snow  Heavy precipitations  Wind > 20 kt
SIGMETs :     Misc.  Thunderstorms  Icing  Turbulence  Mountain Waves  Volcanic Ashes






- Airport Elevation : 256 ft
- IATA code : CFR


LFRK - Caen

CURRENT METAR :
  • 212100Z AUTO 17010KT 9999 BKN020 BKN046 BKN190 07/06 Q0998 TEMPO 4000 SHRA SCT040CB

EXPIRED METARs :
  • 212030Z AUTO 16008KT 9999 BKN015 OVC040 07/06 Q0998 TEMPO 4000 SHRA SCT040CB
  • 212000Z AUTO 14007KT 9999 BKN016 BKN021 BKN031 07/07 Q0998 TEMPO 4000 SHRA SCT040CB
  • 211930Z AUTO 14009KT 9999 FEW016 BKN035 OVC150 07/06 Q0998 TEMPO 4000 SHRA SCT040CB
  • 211900Z AUTO 13010KT 9999 BKN016 BKN037 BKN046 07/07 Q0998 TEMPO 4000 SHRA SCT040CB
  • 211830Z AUTO 13008KT 9999 BKN014 BKN022 OVC027 07/06 Q0999 TEMPO 4000 SHRA SCT040CB

TAF TAF LFRK
Valid from the 21 at 15:00 until the 22 at 00:00 UTC


211400Z 2115/2124 14012KT 9999 BKN015 BKN030
TEMPO 2115/2120 4000 RADZ BKN010
PROB30
TEMPO 2120/2124 4000 SHRA SCT040CB
Met : +33 2 31 26 68 11



MET'MAP, your aeronautical weather chart ! - Copyright ORBIFLY December 2007 - Disclaimer

ORBIFLY MET'MAP TEAM :

Programming & Development : Alexandra Zaïnal
Concept & Development : Baudouin d'Aumeries
Co-Development & Prog : Marc-Olivier Méhu
Technical & hardware support : Manuel Goepfert

Contact : metmap@orbifly.com




SOURCES & CREDITS :

   NOAA